sensor_id;sensor_type;location;lat;lon;timestamp;temperature;humidity
10903;DHT22;5504;47.312;11.060;2023-02-01T00:01:38;3.40;72.60
10903;DHT22;5504;47.312;11.060;2023-02-01T00:04:04;3.40;72.60
10903;DHT22;5504;47.312;11.060;2023-02-01T00:06:30;3.40;72.10
10903;DHT22;5504;47.312;11.060;2023-02-01T00:08:55;3.50;72.60
10903;DHT22;5504;47.312;11.060;2023-02-01T00:11:22;3.40;72.40
10903;DHT22;5504;47.312;11.060;2023-02-01T00:13:48;3.40;73.10
10903;DHT22;5504;47.312;11.060;2023-02-01T00:16:17;3.50;72.70
10903;DHT22;5504;47.312;11.060;2023-02-01T00:18:48;3.50;72.40
10903;DHT22;5504;47.312;11.060;2023-02-01T00:21:16;3.50;73.20
10903;DHT22;5504;47.312;11.060;2023-02-01T00:23:42;3.70;72.00
10903;DHT22;5504;47.312;11.060;2023-02-01T00:26:35;3.60;72.50
10903;DHT22;5504;47.312;11.060;2023-02-01T00:28:59;3.60;72.30
10903;DHT22;5504;47.312;11.060;2023-02-01T00:31:25;3.60;71.70
10903;DHT22;5504;47.312;11.060;2023-02-01T00:33:50;3.60;72.10
10903;DHT22;5504;47.312;11.060;2023-02-01T00:36:17;3.60;72.10
10903;DHT22;5504;47.312;11.060;2023-02-01T00:38:43;3.40;71.90
10903;DHT22;5504;47.312;11.060;2023-02-01T00:41:19;3.30;72.50
10903;DHT22;5504;47.312;11.060;2023-02-01T00:43:46;3.20;72.00
10903;DHT22;5504;47.312;11.060;2023-02-01T00:46:13;3.20;72.10
10903;DHT22;5504;47.312;11.060;2023-02-01T00:48:39;3.10;72.30
10903;DHT22;5504;47.312;11.060;2023-02-01T00:51:08;2.90;72.40
10903;DHT22;5504;47.312;11.060;2023-02-01T00:53:34;2.80;72.60
10903;DHT22;5504;47.312;11.060;2023-02-01T00:56:00;2.80;72.60
10903;DHT22;5504;47.312;11.060;2023-02-01T00:58:26;2.60;72.00
10903;DHT22;5504;47.312;11.060;2023-02-01T01:01:30;2.60;72.50
10903;DHT22;5504;47.312;11.060;2023-02-01T01:03:58;2.70;72.60
10903;DHT22;5504;47.312;11.060;2023-02-01T01:06:33;2.60;72.60
10903;DHT22;5504;47.312;11.060;2023-02-01T01:09:02;2.60;72.30
10903;DHT22;5504;47.312;11.060;2023-02-01T01:11:31;2.60;71.40
10903;DHT22;5504;47.312;11.060;2023-02-01T01:13:58;2.50;72.20
10903;DHT22;5504;47.312;11.060;2023-02-01T01:16:26;2.50;73.00
10903;DHT22;5504;47.312;11.060;2023-02-01T01:18:53;2.50;72.40
10903;DHT22;5504;47.312;11.060;2023-02-01T01:21:19;2.30;73.00
10903;DHT22;5504;47.312;11.060;2023-02-01T01:23:45;2.30;73.20
10903;DHT22;5504;47.312;11.060;2023-02-01T01:26:23;2.30;72.70
10903;DHT22;5504;47.312;11.060;2023-02-01T01:28:49;2.10;73.00
10903;DHT22;5504;47.312;11.060;2023-02-01T01:31:19;2.10;73.10
10903;DHT22;5504;47.312;11.060;2023-02-01T01:33:51;1.90;73.40
10903;DHT22;5504;47.312;11.060;2023-02-01T01:36:17;2.00;72.30
10903;DHT22;5504;47.312;11.060;2023-02-01T01:38:43;1.90;72.50
10903;DHT22;5504;47.312;11.060;2023-02-01T01:41:19;1.80;73.40
10903;DHT22;5504;47.312;11.060;2023-02-01T01:46:20;2.00;72.80
10903;DHT22;5504;47.312;11.060;2023-02-01T01:48:49;2.00;73.10
10903;DHT22;5504;47.312;11.060;2023-02-01T01:51:17;2.10;72.30
10903;DHT22;5504;47.312;11.060;2023-02-01T01:53:56;2.20;71.90
10903;DHT22;5504;47.312;11.060;2023-02-01T01:56:24;1.80;72.60
10903;DHT22;5504;47.312;11.060;2023-02-01T01:58:52;1.80;73.50
10903;DHT22;5504;47.312;11.060;2023-02-01T02:01:17;1.80;73.50
10903;DHT22;5504;47.312;11.060;2023-02-01T02:03:44;1.80;73.80
10903;DHT22;5504;47.312;11.060;2023-02-01T02:09:07;1.90;73.50
10903;DHT22;5504;47.312;11.060;2023-02-01T02:11:33;2.00;73.50
10903;DHT22;5504;47.312;11.060;2023-02-01T02:13:59;1.80;73.60
10903;DHT22;5504;47.312;11.060;2023-02-01T02:16:38;2.00;73.40
10903;DHT22;5504;47.312;11.060;2023-02-01T02:22:11;1.70;73.50
10903;DHT22;5504;47.312;11.060;2023-02-01T02:28:08;1.40;73.90
10903;DHT22;5504;47.312;11.060;2023-02-01T02:42:13;1.20;74.50
10903;DHT22;5504;47.312;11.060;2023-02-01T02:50:36;1.20;75.00
10903;DHT22;5504;47.312;11.060;2023-02-01T02:53:27;1.10;74.90
10903;DHT22;5504;47.312;11.060;2023-02-01T02:56:12;1.00;75.40
10903;DHT22;5504;47.312;11.060;2023-02-01T02:58:58;1.10;74.60
10903;DHT22;5504;47.312;11.060;2023-02-01T03:01:42;1.10;74.50
10903;DHT22;5504;47.312;11.060;2023-02-01T03:04:27;1.20;74.20
10903;DHT22;5504;47.312;11.060;2023-02-01T03:06:53;1.20;73.60
10903;DHT22;5504;47.312;11.060;2023-02-01T03:09:26;1.00;73.70
10903;DHT22;5504;47.312;11.060;2023-02-01T03:11:56;1.00;73.60
10903;DHT22;5504;47.312;11.060;2023-02-01T03:14:44;1.00;73.80
10903;DHT22;5504;47.312;11.060;2023-02-01T03:17:14;1.00;74.20
10903;DHT22;5504;47.312;11.060;2023-02-01T03:19:48;0.80;74.40
10903;DHT22;5504;47.312;11.060;2023-02-01T03:22:23;0.70;74.50
10903;DHT22;5504;47.312;11.060;2023-02-01T03:24:56;0.60;74.50
10903;DHT22;5504;47.312;11.060;2023-02-01T03:27:33;0.80;74.80
10903;DHT22;5504;47.312;11.060;2023-02-01T03:32:32;0.70;75.10
10903;DHT22;5504;47.312;11.060;2023-02-01T03:35:25;0.70;75.60
10903;DHT22;5504;47.312;11.060;2023-02-01T03:37:54;0.50;76.00
10903;DHT22;5504;47.312;11.060;2023-02-01T03:40:22;0.40;76.70
10903;DHT22;5504;47.312;11.060;2023-02-01T03:42:51;0.40;76.80
10903;DHT22;5504;47.312;11.060;2023-02-01T03:45:24;0.60;76.30
10903;DHT22;5504;47.312;11.060;2023-02-01T03:47:55;0.40;76.40
10903;DHT22;5504;47.312;11.060;2023-02-01T03:50:23;0.50;76.30
10903;DHT22;5504;47.312;11.060;2023-02-01T03:53:10;0.40;76.20
10903;DHT22;5504;47.312;11.060;2023-02-01T03:55:38;0.50;76.20
10903;DHT22;5504;47.312;11.060;2023-02-01T03:58:18;0.40;75.60
10903;DHT22;5504;47.312;11.060;2023-02-01T04:00:50;0.30;76.10
10903;DHT22;5504;47.312;11.060;2023-02-01T04:03:16;0.40;76.10
10903;DHT22;5504;47.312;11.060;2023-02-01T04:05:43;0.10;77.30
10903;DHT22;5504;47.312;11.060;2023-02-01T04:08:09;0.30;77.20
10903;DHT22;5504;47.312;11.060;2023-02-01T04:10:34;0.40;76.40
10903;DHT22;5504;47.312;11.060;2023-02-01T04:13:00;0.30;76.00
10903;DHT22;5504;47.312;11.060;2023-02-01T04:15:26;0.10;76.60
10903;DHT22;5504;47.312;11.060;2023-02-01T04:17:51;0.00;77.10
10903;DHT22;5504;47.312;11.060;2023-02-01T04:20:17;0.20;77.60
10903;DHT22;5504;47.312;11.060;2023-02-01T04:22:43;0.10;77.00
10903;DHT22;5504;47.312;11.060;2023-02-01T04:25:09;0.20;76.50
10903;DHT22;5504;47.312;11.060;2023-02-01T04:27:35;0.00;76.50
10903;DHT22;5504;47.312;11.060;2023-02-01T04:30:02;0.00;76.90
10903;DHT22;5504;47.312;11.060;2023-02-01T04:32:27;0.20;76.40
10903;DHT22;5504;47.312;11.060;2023-02-01T04:34:53;0.10;76.70
10903;DHT22;5504;47.312;11.060;2023-02-01T04:37:19;0.20;76.10
10903;DHT22;5504;47.312;11.060;2023-02-01T04:39:44;-0.40;76.70
10903;DHT22;5504;47.312;11.060;2023-02-01T04:42:10;-0.40;78.20
10903;DHT22;5504;47.312;11.060;2023-02-01T04:44:36;-0.40;78.00
10903;DHT22;5504;47.312;11.060;2023-02-01T04:47:07;-0.30;77.80
10903;DHT22;5504;47.312;11.060;2023-02-01T04:49:33;-0.30;77.40
10903;DHT22;5504;47.312;11.060;2023-02-01T04:51:59;-0.20;77.50
10903;DHT22;5504;47.312;11.060;2023-02-01T04:54:24;-0.20;77.60
10903;DHT22;5504;47.312;11.060;2023-02-01T04:56:50;-0.20;77.60
10903;DHT22;5504;47.312;11.060;2023-02-01T04:59:16;-0.30;78.10
10903;DHT22;5504;47.312;11.060;2023-02-01T05:01:42;-0.20;77.70
10903;DHT22;5504;47.312;11.060;2023-02-01T05:04:07;-0.30;77.50
10903;DHT22;5504;47.312;11.060;2023-02-01T05:06:33;-0.40;78.20
10903;DHT22;5504;47.312;11.060;2023-02-01T05:08:59;-0.30;77.80
10903;DHT22;5504;47.312;11.060;2023-02-01T05:11:24;-0.30;77.90
10903;DHT22;5504;47.312;11.060;2023-02-01T05:14:09;-0.20;77.70
10903;DHT22;5504;47.312;11.060;2023-02-01T05:16:35;0.00;77.80
10903;DHT22;5504;47.312;11.060;2023-02-01T05:19:01;0.00;76.70
10903;DHT22;5504;47.312;11.060;2023-02-01T05:21:26;0.00;76.50
10903;DHT22;5504;47.312;11.060;2023-02-01T05:23:52;-0.10;76.20
10903;DHT22;5504;47.312;11.060;2023-02-01T05:26:38;-0.10;76.20
10903;DHT22;5504;47.312;11.060;2023-02-01T05:29:05;0.00;75.80
10903;DHT22;5504;47.312;11.060;2023-02-01T05:31:31;-0.10;75.80
10903;DHT22;5504;47.312;11.060;2023-02-01T05:33:56;-0.20;76.10
10903;DHT22;5504;47.312;11.060;2023-02-01T05:36:22;-0.40;76.80
10903;DHT22;5504;47.312;11.060;2023-02-01T05:38:48;-0.20;76.90
10903;DHT22;5504;47.312;11.060;2023-02-01T05:41:13;-0.20;76.30
10903;DHT22;5504;47.312;11.060;2023-02-01T05:43:39;-0.30;76.40
10903;DHT22;5504;47.312;11.060;2023-02-01T05:46:05;-0.30;76.70
10903;DHT22;5504;47.312;11.060;2023-02-01T05:48:30;-0.30;76.80
10903;DHT22;5504;47.312;11.060;2023-02-01T05:50:56;-0.20;77.00
10903;DHT22;5504;47.312;11.060;2023-02-01T05:53:22;-0.20;76.30
10903;DHT22;5504;47.312;11.060;2023-02-01T05:55:48;-0.40;76.70
10903;DHT22;5504;47.312;11.060;2023-02-01T05:58:13;-0.40;77.10
10903;DHT22;5504;47.312;11.060;2023-02-01T06:00:39;-0.50;77.10
10903;DHT22;5504;47.312;11.060;2023-02-01T06:03:05;-0.60;77.80
10903;DHT22;5504;47.312;11.060;2023-02-01T06:05:31;-0.50;77.40
10903;DHT22;5504;47.312;11.060;2023-02-01T06:07:57;-0.40;77.30
10903;DHT22;5504;47.312;11.060;2023-02-01T06:10:23;-0.30;77.10
10903;DHT22;5504;47.312;11.060;2023-02-01T06:12:49;-0.40;77.10
10903;DHT22;5504;47.312;11.060;2023-02-01T06:15:15;-0.30;76.80
10903;DHT22;5504;47.312;11.060;2023-02-01T06:17:43;-0.30;77.00
10903;DHT22;5504;47.312;11.060;2023-02-01T06:20:11;-0.20;76.60
10903;DHT22;5504;47.312;11.060;2023-02-01T06:22:37;-0.20;76.20
10903;DHT22;5504;47.312;11.060;2023-02-01T06:25:05;-0.40;77.10
10903;DHT22;5504;47.312;11.060;2023-02-01T06:27:31;-0.40;76.90
10903;DHT22;5504;47.312;11.060;2023-02-01T06:29:57;-0.50;76.80
10903;DHT22;5504;47.312;11.060;2023-02-01T06:32:23;-1.10;78.20
10903;DHT22;5504;47.312;11.060;2023-02-01T06:34:49;-0.90;78.80
10903;DHT22;5504;47.312;11.060;2023-02-01T06:37:14;-0.60;78.20
10903;DHT22;5504;47.312;11.060;2023-02-01T06:39:40;-0.60;78.00
10903;DHT22;5504;47.312;11.060;2023-02-01T06:42:06;-0.70;78.10
10903;DHT22;5504;47.312;11.060;2023-02-01T06:44:32;-0.60;78.00
10903;DHT22;5504;47.312;11.060;2023-02-01T06:46:57;-0.60;77.80
10903;DHT22;5504;47.312;11.060;2023-02-01T06:49:23;-0.40;77.70
10903;DHT22;5504;47.312;11.060;2023-02-01T06:51:49;-0.20;77.30
10903;DHT22;5504;47.312;11.060;2023-02-01T06:54:15;-0.20;76.90
10903;DHT22;5504;47.312;11.060;2023-02-01T06:56:40;-0.40;76.90
10903;DHT22;5504;47.312;11.060;2023-02-01T06:59:07;-0.30;77.20
10903;DHT22;5504;47.312;11.060;2023-02-01T07:01:33;-0.30;77.30
10903;DHT22;5504;47.312;11.060;2023-02-01T07:03:59;-0.20;77.40
10903;DHT22;5504;47.312;11.060;2023-02-01T07:06:24;-0.10;77.40
10903;DHT22;5504;47.312;11.060;2023-02-01T07:08:50;-0.10;77.60
10903;DHT22;5504;47.312;11.060;2023-02-01T07:11:19;-0.10;78.00
10903;DHT22;5504;47.312;11.060;2023-02-01T07:13:45;0.20;78.20
10903;DHT22;5504;47.312;11.060;2023-02-01T07:16:14;0.40;77.60
10903;DHT22;5504;47.312;11.060;2023-02-01T07:18:40;0.80;77.60
10903;DHT22;5504;47.312;11.060;2023-02-01T07:21:06;1.20;76.70
10903;DHT22;5504;47.312;11.060;2023-02-01T07:23:32;1.30;75.00
10903;DHT22;5504;47.312;11.060;2023-02-01T07:26:00;1.60;75.40
10903;DHT22;5504;47.312;11.060;2023-02-01T07:28:27;1.60;75.30
10903;DHT22;5504;47.312;11.060;2023-02-01T07:30:53;1.60;75.50
10903;DHT22;5504;47.312;11.060;2023-02-01T07:33:23;2.10;75.20
10903;DHT22;5504;47.312;11.060;2023-02-01T07:35:50;2.70;74.60
10903;DHT22;5504;47.312;11.060;2023-02-01T07:38:16;3.10;73.60
10903;DHT22;5504;47.312;11.060;2023-02-01T07:40:42;3.60;72.20
10903;DHT22;5504;47.312;11.060;2023-02-01T07:43:08;3.90;71.10
10903;DHT22;5504;47.312;11.060;2023-02-01T07:45:36;4.00;69.50
10903;DHT22;5504;47.312;11.060;2023-02-01T07:48:03;4.00;69.60
10903;DHT22;5504;47.312;11.060;2023-02-01T07:50:29;3.40;70.30
10903;DHT22;5504;47.312;11.060;2023-02-01T07:52:55;2.20;72.90
10903;DHT22;5504;47.312;11.060;2023-02-01T07:55:21;2.40;74.20
10903;DHT22;5504;47.312;11.060;2023-02-01T07:57:47;2.60;74.50
10903;DHT22;5504;47.312;11.060;2023-02-01T08:00:13;2.80;73.80
10903;DHT22;5504;47.312;11.060;2023-02-01T08:02:58;2.60;73.70
10903;DHT22;5504;47.312;11.060;2023-02-01T08:05:24;2.40;74.70
10903;DHT22;5504;47.312;11.060;2023-02-01T08:07:51;2.50;75.00
10903;DHT22;5504;47.312;11.060;2023-02-01T08:10:17;2.30;74.70
10903;DHT22;5504;47.312;11.060;2023-02-01T08:12:43;2.60;74.90
10903;DHT22;5504;47.312;11.060;2023-02-01T08:15:14;2.60;75.10
10903;DHT22;5504;47.312;11.060;2023-02-01T08:17:46;2.70;75.20
10903;DHT22;5504;47.312;11.060;2023-02-01T08:20:12;2.90;74.20
10903;DHT22;5504;47.312;11.060;2023-02-01T08:22:38;2.50;74.40
10903;DHT22;5504;47.312;11.060;2023-02-01T08:25:05;2.40;76.30
10903;DHT22;5504;47.312;11.060;2023-02-01T08:27:33;2.50;76.00
10903;DHT22;5504;47.312;11.060;2023-02-01T08:29:58;2.50;76.30
10903;DHT22;5504;47.312;11.060;2023-02-01T08:32:25;1.70;77.30
10903;DHT22;5504;47.312;11.060;2023-02-01T08:34:50;1.60;79.50
10903;DHT22;5504;47.312;11.060;2023-02-01T08:37:16;1.90;79.00
10903;DHT22;5504;47.312;11.060;2023-02-01T08:39:42;1.80;79.30
10903;DHT22;5504;47.312;11.060;2023-02-01T08:42:12;1.90;78.70
10903;DHT22;5504;47.312;11.060;2023-02-01T08:44:56;2.10;79.10
10903;DHT22;5504;47.312;11.060;2023-02-01T08:47:22;2.50;78.00
10903;DHT22;5504;47.312;11.060;2023-02-01T08:49:48;2.70;77.30
10903;DHT22;5504;47.312;11.060;2023-02-01T08:52:14;2.80;76.50
10903;DHT22;5504;47.312;11.060;2023-02-01T08:54:39;2.60;75.60
10903;DHT22;5504;47.312;11.060;2023-02-01T08:57:06;2.20;76.50
10903;DHT22;5504;47.312;11.060;2023-02-01T08:59:32;2.00;77.30
10903;DHT22;5504;47.312;11.060;2023-02-01T09:01:58;2.30;78.00
10903;DHT22;5504;47.312;11.060;2023-02-01T09:04:23;2.30;76.70
10903;DHT22;5504;47.312;11.060;2023-02-01T09:06:49;2.50;76.00
10903;DHT22;5504;47.312;11.060;2023-02-01T09:09:15;2.50;74.40
10903;DHT22;5504;47.312;11.060;2023-02-01T09:11:40;2.40;75.00
10903;DHT22;5504;47.312;11.060;2023-02-01T09:14:06;2.70;75.20
10903;DHT22;5504;47.312;11.060;2023-02-01T09:16:32;2.90;74.80
10903;DHT22;5504;47.312;11.060;2023-02-01T09:18:57;3.10;73.30
10903;DHT22;5504;47.312;11.060;2023-02-01T09:21:23;3.30;73.30
10903;DHT22;5504;47.312;11.060;2023-02-01T09:23:51;3.40;72.50
10903;DHT22;5504;47.312;11.060;2023-02-01T09:26:16;3.60;71.70
10903;DHT22;5504;47.312;11.060;2023-02-01T09:28:42;3.60;71.50
10903;DHT22;5504;47.312;11.060;2023-02-01T09:31:08;3.60;72.10
10903;DHT22;5504;47.312;11.060;2023-02-01T09:33:34;3.60;72.30
10903;DHT22;5504;47.312;11.060;2023-02-01T09:36:03;3.80;72.00
10903;DHT22;5504;47.312;11.060;2023-02-01T09:38:30;4.00;71.70
10903;DHT22;5504;47.312;11.060;2023-02-01T09:40:56;4.10;71.00
10903;DHT22;5504;47.312;11.060;2023-02-01T09:46:21;3.90;70.60
10903;DHT22;5504;47.312;11.060;2023-02-01T09:48:50;3.80;71.40
10903;DHT22;5504;47.312;11.060;2023-02-01T09:51:41;3.60;71.20
10903;DHT22;5504;47.312;11.060;2023-02-01T09:54:19;3.70;71.70
10903;DHT22;5504;47.312;11.060;2023-02-01T09:57:08;3.90;72.20
10903;DHT22;5504;47.312;11.060;2023-02-01T09:59:40;4.10;72.30
10903;DHT22;5504;47.312;11.060;2023-02-01T10:02:24;4.20;71.00
10903;DHT22;5504;47.312;11.060;2023-02-01T10:04:57;4.40;70.70
10903;DHT22;5504;47.312;11.060;2023-02-01T10:07:38;4.30;70.50
10903;DHT22;5504;47.312;11.060;2023-02-01T10:56:26;7.80;61.20
10903;DHT22;5504;47.312;11.060;2023-02-01T10:59:01;8.20;59.80
10903;DHT22;5504;47.312;11.060;2023-02-01T11:01:34;8.10;58.70
10903;DHT22;5504;47.312;11.060;2023-02-01T11:04:02;8.40;58.70
10903;DHT22;5504;47.312;11.060;2023-02-01T11:09:00;8.80;58.50
10903;DHT22;5504;47.312;11.060;2023-02-01T11:11:26;8.90;56.70
10903;DHT22;5504;47.312;11.060;2023-02-01T11:13:56;9.00;56.60
10903;DHT22;5504;47.312;11.060;2023-02-01T11:16:33;8.60;56.60
10903;DHT22;5504;47.312;11.060;2023-02-01T11:18:59;8.60;57.20
10903;DHT22;5504;47.312;11.060;2023-02-01T11:21:26;8.90;57.10
10903;DHT22;5504;47.312;11.060;2023-02-01T11:23:51;8.80;56.40
10903;DHT22;5504;47.312;11.060;2023-02-01T11:26:27;8.90;55.70
10903;DHT22;5504;47.312;11.060;2023-02-01T11:29:05;9.10;55.30
10903;DHT22;5504;47.312;11.060;2023-02-01T11:31:35;9.30;55.40
10903;DHT22;5504;47.312;11.060;2023-02-01T11:34:16;9.20;55.80
10903;DHT22;5504;47.312;11.060;2023-02-01T11:36:45;9.10;55.10
10903;DHT22;5504;47.312;11.060;2023-02-01T11:39:33;9.20;55.30
10903;DHT22;5504;47.312;11.060;2023-02-01T11:44:38;9.20;55.00
10903;DHT22;5504;47.312;11.060;2023-02-01T11:47:31;9.20;54.30
10903;DHT22;5504;47.312;11.060;2023-02-01T11:50:12;8.90;54.50
10903;DHT22;5504;47.312;11.060;2023-02-01T11:58:30;9.50;53.10
10903;DHT22;5504;47.312;11.060;2023-02-01T12:06:52;9.40;50.80
10903;DHT22;5504;47.312;11.060;2023-02-01T12:14:45;9.60;50.60
10903;DHT22;5504;47.312;11.060;2023-02-01T12:26:19;9.60;50.30
10903;DHT22;5504;47.312;11.060;2023-02-01T12:34:20;9.60;49.60
10903;DHT22;5504;47.312;11.060;2023-02-01T12:40:10;9.70;49.60
10903;DHT22;5504;47.312;11.060;2023-02-01T12:45:42;9.60;49.00
10903;DHT22;5504;47.312;11.060;2023-02-01T12:51:07;9.60;48.80
10903;DHT22;5504;47.312;11.060;2023-02-01T12:53:57;9.80;47.90
10903;DHT22;5504;47.312;11.060;2023-02-01T12:56:40;9.80;47.20
10903;DHT22;5504;47.312;11.060;2023-02-01T13:01:51;10.00;47.60
10903;DHT22;5504;47.312;11.060;2023-02-01T13:07:24;10.00;47.90
10903;DHT22;5504;47.312;11.060;2023-02-01T13:10:42;10.00;47.70
10903;DHT22;5504;47.312;11.060;2023-02-01T13:12:54;9.90;47.70
10903;DHT22;5504;47.312;11.060;2023-02-01T13:17:52;9.80;47.70
10903;DHT22;5504;47.312;11.060;2023-02-01T13:20:32;9.70;48.20
10903;DHT22;5504;47.312;11.060;2023-02-01T13:23:04;9.40;47.50
10903;DHT22;5504;47.312;11.060;2023-02-01T13:28:14;9.60;48.30
10903;DHT22;5504;47.312;11.060;2023-02-01T13:34:01;9.30;48.10
10903;DHT22;5504;47.312;11.060;2023-02-01T13:45:12;9.60;48.10
10903;DHT22;5504;47.312;11.060;2023-02-01T13:49:54;9.70;48.10
10903;DHT22;5504;47.312;11.060;2023-02-01T13:52:39;9.80;48.00
10903;DHT22;5504;47.312;11.060;2023-02-01T13:55:28;9.90;48.00
10903;DHT22;5504;47.312;11.060;2023-02-01T13:58:05;9.90;47.50
10903;DHT22;5504;47.312;11.060;2023-02-01T14:00:35;9.70;47.60
10903;DHT22;5504;47.312;11.060;2023-02-01T14:21:19;9.30;47.90
10903;DHT22;5504;47.312;11.060;2023-02-01T14:24:01;9.30;48.50
10903;DHT22;5504;47.312;11.060;2023-02-01T14:26:45;9.20;48.50
10903;DHT22;5504;47.312;11.060;2023-02-01T14:29:29;9.40;48.60
10903;DHT22;5504;47.312;11.060;2023-02-01T14:32:15;9.20;48.10
10903;DHT22;5504;47.312;11.060;2023-02-01T14:44:47;9.50;48.70
10903;DHT22;5504;47.312;11.060;2023-02-01T14:49:59;9.80;48.00
10903;DHT22;5504;47.312;11.060;2023-02-01T14:58:24;9.60;48.80
10903;DHT22;5504;47.312;11.060;2023-02-01T15:00:55;9.50;49.00
10903;DHT22;5504;47.312;11.060;2023-02-01T15:06:32;9.30;50.10
10903;DHT22;5504;47.312;11.060;2023-02-01T15:09:08;9.20;50.00
10903;DHT22;5504;47.312;11.060;2023-02-01T15:12:36;9.20;49.50
10903;DHT22;5504;47.312;11.060;2023-02-01T15:14:47;8.90;49.90
10903;DHT22;5504;47.312;11.060;2023-02-01T15:19:54;8.00;51.60
10903;DHT22;5504;47.312;11.060;2023-02-01T15:22:20;8.00;51.20
10903;DHT22;5504;47.312;11.060;2023-02-01T15:24:52;7.70;51.90
10903;DHT22;5504;47.312;11.060;2023-02-01T15:27:19;7.30;52.60
10903;DHT22;5504;47.312;11.060;2023-02-01T15:29:45;7.40;53.30
10903;DHT22;5504;47.312;11.060;2023-02-01T15:34:56;7.70;53.30
10903;DHT22;5504;47.312;11.060;2023-02-01T15:37:22;7.80;53.20
10903;DHT22;5504;47.312;11.060;2023-02-01T15:42:39;7.00;54.10
10903;DHT22;5504;47.312;11.060;2023-02-01T15:45:19;7.20;54.50
10903;DHT22;5504;47.312;11.060;2023-02-01T15:47:50;7.20;54.60
10903;DHT22;5504;47.312;11.060;2023-02-01T15:50:19;7.40;54.70
10903;DHT22;5504;47.312;11.060;2023-02-01T15:52:48;7.20;54.20
10903;DHT22;5504;47.312;11.060;2023-02-01T15:57:48;7.10;55.00
10903;DHT22;5504;47.312;11.060;2023-02-01T16:02:52;7.40;54.20
10903;DHT22;5504;47.312;11.060;2023-02-01T16:05:40;7.20;54.50
10903;DHT22;5504;47.312;11.060;2023-02-01T16:10:43;7.10;55.00
10903;DHT22;5504;47.312;11.060;2023-02-01T16:13:09;6.90;55.10
10903;DHT22;5504;47.312;11.060;2023-02-01T16:15:35;6.60;56.40
10903;DHT22;5504;47.312;11.060;2023-02-01T16:18:00;6.50;55.60
10903;DHT22;5504;47.312;11.060;2023-02-01T16:20:26;6.90;55.80
10903;DHT22;5504;47.312;11.060;2023-02-01T16:22:52;6.90;55.00
10903;DHT22;5504;47.312;11.060;2023-02-01T16:25:18;7.30;55.30
10903;DHT22;5504;47.312;11.060;2023-02-01T16:27:44;7.50;55.10
10903;DHT22;5504;47.312;11.060;2023-02-01T16:30:10;7.50;54.90
10903;DHT22;5504;47.312;11.060;2023-02-01T16:32:37;7.60;54.90
10903;DHT22;5504;47.312;11.060;2023-02-01T16:35:15;7.40;55.00
10903;DHT22;5504;47.312;11.060;2023-02-01T16:37:45;7.50;55.20
10903;DHT22;5504;47.312;11.060;2023-02-01T16:40:14;7.50;55.90
10903;DHT22;5504;47.312;11.060;2023-02-01T16:42:40;7.50;55.60
10903;DHT22;5504;47.312;11.060;2023-02-01T16:45:07;7.60;55.70
10903;DHT22;5504;47.312;11.060;2023-02-01T16:47:33;7.40;55.30
10903;DHT22;5504;47.312;11.060;2023-02-01T16:50:01;7.30;55.80
10903;DHT22;5504;47.312;11.060;2023-02-01T16:52:27;7.20;56.40
10903;DHT22;5504;47.312;11.060;2023-02-01T16:54:53;7.10;56.00
10903;DHT22;5504;47.312;11.060;2023-02-01T16:57:20;7.30;55.70
10903;DHT22;5504;47.312;11.060;2023-02-01T16:59:49;7.40;55.90
10903;DHT22;5504;47.312;11.060;2023-02-01T17:02:16;6.60;56.20
10903;DHT22;5504;47.312;11.060;2023-02-01T17:04:44;6.30;57.20
10903;DHT22;5504;47.312;11.060;2023-02-01T17:07:15;6.20;57.70
10903;DHT22;5504;47.312;11.060;2023-02-01T17:09:41;6.30;57.60
10903;DHT22;5504;47.312;11.060;2023-02-01T17:12:22;6.60;57.10
10903;DHT22;5504;47.312;11.060;2023-02-01T17:14:48;6.90;57.20
10903;DHT22;5504;47.312;11.060;2023-02-01T17:17:14;7.00;57.20
10903;DHT22;5504;47.312;11.060;2023-02-01T17:19:40;7.10;57.10
10903;DHT22;5504;47.312;11.060;2023-02-01T17:22:06;6.90;57.40
10903;DHT22;5504;47.312;11.060;2023-02-01T17:24:32;6.80;57.70
10903;DHT22;5504;47.312;11.060;2023-02-01T17:26:57;6.80;58.80
10903;DHT22;5504;47.312;11.060;2023-02-01T17:29:23;6.70;59.20
10903;DHT22;5504;47.312;11.060;2023-02-01T17:31:51;6.50;60.00
10903;DHT22;5504;47.312;11.060;2023-02-01T17:34:18;6.50;60.20
10903;DHT22;5504;47.312;11.060;2023-02-01T17:36:44;6.30;60.20
10903;DHT22;5504;47.312;11.060;2023-02-01T17:39:11;6.20;60.70
10903;DHT22;5504;47.312;11.060;2023-02-01T17:41:57;6.40;61.10
10903;DHT22;5504;47.312;11.060;2023-02-01T17:44:23;5.70;61.70
10903;DHT22;5504;47.312;11.060;2023-02-01T17:46:48;5.60;62.70
10903;DHT22;5504;47.312;11.060;2023-02-01T17:49:14;5.90;62.50
10903;DHT22;5504;47.312;11.060;2023-02-01T17:51:40;5.70;62.90
10903;DHT22;5504;47.312;11.060;2023-02-01T17:54:11;5.60;63.30
10903;DHT22;5504;47.312;11.060;2023-02-01T17:56:37;5.90;63.20
10903;DHT22;5504;47.312;11.060;2023-02-01T17:59:03;6.00;62.50
10903;DHT22;5504;47.312;11.060;2023-02-01T18:01:29;5.60;62.90
10903;DHT22;5504;47.312;11.060;2023-02-01T18:03:54;5.70;63.70
10903;DHT22;5504;47.312;11.060;2023-02-01T18:06:25;5.40;63.80
10903;DHT22;5504;47.312;11.060;2023-02-01T18:08:51;5.20;64.70
10903;DHT22;5504;47.312;11.060;2023-02-01T18:11:23;5.30;65.40
10903;DHT22;5504;47.312;11.060;2023-02-01T18:13:51;5.50;64.90
10903;DHT22;5504;47.312;11.060;2023-02-01T18:18:46;6.00;63.20
10903;DHT22;5504;47.312;11.060;2023-02-01T18:21:13;6.20;62.70
10903;DHT22;5504;47.312;11.060;2023-02-01T18:23:39;5.70;63.60
10903;DHT22;5504;47.312;11.060;2023-02-01T18:26:05;5.80;63.70
10903;DHT22;5504;47.312;11.060;2023-02-01T18:28:30;5.70;63.90
10903;DHT22;5504;47.312;11.060;2023-02-01T18:30:56;5.80;64.10
10903;DHT22;5504;47.312;11.060;2023-02-01T18:33:22;5.80;63.40
10903;DHT22;5504;47.312;11.060;2023-02-01T18:35:48;5.60;64.20
10903;DHT22;5504;47.312;11.060;2023-02-01T18:38:14;5.40;64.50
10903;DHT22;5504;47.312;11.060;2023-02-01T18:40:51;5.20;64.50
10903;DHT22;5504;47.312;11.060;2023-02-01T18:43:18;5.30;64.30
10903;DHT22;5504;47.312;11.060;2023-02-01T18:45:45;5.00;65.20
10903;DHT22;5504;47.312;11.060;2023-02-01T18:48:12;5.30;65.00
10903;DHT22;5504;47.312;11.060;2023-02-01T18:50:40;5.60;63.60
10903;DHT22;5504;47.312;11.060;2023-02-01T18:53:14;5.70;62.50
10903;DHT22;5504;47.312;11.060;2023-02-01T18:55:40;5.50;63.20
10903;DHT22;5504;47.312;11.060;2023-02-01T18:58:06;5.50;63.40
10903;DHT22;5504;47.312;11.060;2023-02-01T19:00:33;5.60;63.30
10903;DHT22;5504;47.312;11.060;2023-02-01T19:02:59;5.60;62.90
10903;DHT22;5504;47.312;11.060;2023-02-01T19:05:25;5.60;63.00
10903;DHT22;5504;47.312;11.060;2023-02-01T19:07:52;5.80;62.60
10903;DHT22;5504;47.312;11.060;2023-02-01T19:10:20;6.00;61.60
10903;DHT22;5504;47.312;11.060;2023-02-01T19:12:47;6.10;61.10
10903;DHT22;5504;47.312;11.060;2023-02-01T19:15:13;6.10;61.50
10903;DHT22;5504;47.312;11.060;2023-02-01T19:17:45;6.00;61.50
10903;DHT22;5504;47.312;11.060;2023-02-01T19:20:14;5.90;61.40
10903;DHT22;5504;47.312;11.060;2023-02-01T19:22:40;6.00;61.50
10903;DHT22;5504;47.312;11.060;2023-02-01T19:25:08;6.10;61.10
10903;DHT22;5504;47.312;11.060;2023-02-01T19:27:34;6.30;61.20